createdAt,value
2019-02-21T00:01:40.346Z,14.75
2019-02-21T00:04:15.289Z,12.97
2019-02-21T00:06:49.894Z,16.50
2019-02-21T00:11:57.672Z,16.93
2019-02-21T00:14:32.278Z,14.60
2019-02-21T00:17:06.881Z,12.90
2019-02-21T00:22:14.509Z,12.37
2019-02-21T00:24:49.287Z,15.15
2019-02-21T00:27:23.955Z,14.40
2019-02-21T00:29:58.673Z,15.03
2019-02-21T00:35:20.313Z,14.68
2019-02-21T00:37:55.109Z,14.70
2019-02-21T00:40:30.136Z,13.77
2019-02-21T00:43:05.111Z,13.10
2019-02-21T00:45:39.738Z,13.65
2019-02-21T00:48:15.708Z,14.03
2019-02-21T00:50:50.233Z,17.62
2019-02-21T00:53:24.710Z,12.70
2019-02-21T00:55:59.320Z,15.35
2019-02-21T00:58:33.935Z,14.68
2019-02-21T01:03:42.792Z,16.00
2019-02-21T01:08:51.293Z,14.78
2019-02-21T01:11:27.763Z,15.15
2019-02-21T01:16:36.675Z,15.13
2019-02-21T01:19:11.311Z,13.28
2019-02-21T01:21:45.706Z,16.47
2019-02-21T01:24:20.294Z,13.98
2019-02-21T01:26:54.722Z,13.95
2019-02-21T01:29:29.284Z,24.07
2019-02-21T01:32:03.954Z,15.63
2019-02-21T01:34:38.360Z,15.88
2019-02-21T01:37:12.744Z,16.42
2019-02-21T01:39:47.294Z,14.33
2019-02-21T01:42:21.700Z,18.02
2019-02-21T01:44:56.289Z,16.20
2019-02-21T01:47:30.954Z,16.20
2019-02-21T01:50:25.674Z,16.12
2019-02-21T01:53:00.294Z,18.25
2019-02-21T01:55:34.894Z,18.92
2019-02-21T02:00:42.287Z,20.60
2019-02-21T02:03:17.909Z,18.02
2019-02-21T02:08:25.685Z,18.40
2019-02-21T02:11:00.286Z,18.20
2019-02-21T02:13:34.960Z,36.30
2019-02-21T02:16:10.692Z,55.67
2019-02-21T02:18:45.283Z,25.50
2019-02-21T02:21:19.741Z,14.95
2019-02-21T02:23:54.583Z,15.10
2019-02-21T02:26:28.957Z,15.60
2019-02-21T02:31:36.673Z,15.98
2019-02-21T02:34:11.283Z,19.27
2019-02-21T02:36:45.681Z,16.77
2019-02-21T02:39:20.688Z,35.80
2019-02-21T02:41:55.677Z,36.73
2019-02-21T02:44:30.682Z,26.07
2019-02-21T02:47:05.291Z,20.08
2019-02-21T02:49:39.865Z,16.77
2019-02-21T02:54:47.733Z,19.37
2019-02-21T02:57:22.257Z,18.80
2019-02-21T02:59:56.993Z,16.80
2019-02-21T03:02:31.655Z,22.17
2019-02-21T03:05:06.582Z,25.05
2019-02-21T03:07:41.131Z,15.13
2019-02-21T03:10:15.744Z,15.47
2019-02-21T03:12:50.318Z,25.50
2019-02-21T03:15:24.943Z,18.53
2019-02-21T03:17:59.321Z,20.40
2019-02-21T03:20:34.291Z,19.87
2019-02-21T03:23:08.881Z,31.37
2019-02-21T03:28:16.315Z,15.67
2019-02-21T03:30:50.940Z,22.47
2019-02-21T03:33:25.323Z,18.17
2019-02-21T03:36:00.317Z,18.83
2019-02-21T03:38:35.854Z,31.87
2019-02-21T03:46:16.678Z,20.93
2019-02-21T03:48:51.600Z,19.70
2019-02-21T03:51:26.294Z,16.00
2019-02-21T03:54:01.279Z,17.50
2019-02-21T03:56:35.878Z,13.83
2019-02-21T04:01:43.668Z,15.23
2019-02-21T04:04:18.326Z,15.37
2019-02-21T04:06:53.332Z,19.67
2019-02-21T04:09:27.899Z,22.67
2019-02-21T04:14:35.948Z,18.42
2019-02-21T04:19:43.970Z,18.83
2019-02-21T04:22:19.712Z,17.43
2019-02-21T04:24:54.339Z,17.45
2019-02-21T04:27:29.223Z,16.73
2019-02-21T04:30:03.768Z,21.00
2019-02-21T04:35:11.689Z,23.23
2019-02-21T04:37:46.278Z,14.60
2019-02-21T04:40:20.878Z,18.95
2019-02-21T04:45:28.659Z,18.87
2019-02-21T04:48:03.259Z,17.35
2019-02-21T04:50:37.717Z,18.77
2019-02-21T04:53:12.268Z,22.42
2019-02-21T04:55:46.897Z,16.07
2019-02-21T05:00:55.094Z,20.68
2019-02-21T05:03:29.802Z,21.50
2019-02-21T05:08:37.683Z,20.08
2019-02-21T05:11:12.676Z,18.63
2019-02-21T05:13:47.289Z,16.80
2019-02-21T05:16:21.736Z,14.90
2019-02-21T05:18:58.730Z,23.60
2019-02-21T05:21:33.298Z,21.40
2019-02-21T05:24:07.804Z,16.87
2019-02-21T05:29:22.798Z,14.93
2019-02-21T05:32:10.602Z,21.05
2019-02-21T05:35:00.651Z,17.40
2019-02-21T05:37:57.788Z,19.67
2019-02-21T05:40:51.775Z,15.23
2019-02-21T05:46:41.958Z,13.62
2019-02-21T05:52:46.312Z,21.00
2019-02-21T05:56:09.953Z,19.35
2019-02-21T06:02:16.879Z,16.45
2019-02-21T06:08:19.278Z,21.30
2019-02-21T06:11:36.679Z,17.30
2019-02-21T06:14:45.722Z,17.73
2019-02-21T06:18:12.291Z,15.53
2019-02-21T06:21:26.408Z,19.47
2019-02-21T06:24:41.867Z,17.83
2019-02-21T06:27:38.464Z,17.62
2019-02-21T06:30:47.129Z,21.67
2019-02-21T06:33:39.332Z,22.85
2019-02-21T06:36:31.319Z,19.95
2019-02-21T06:39:25.157Z,19.75
2019-02-21T06:42:17.743Z,18.70
2019-02-21T06:50:52.288Z,22.45
2019-02-21T06:53:44.702Z,22.60
2019-02-21T06:56:37.330Z,19.60
2019-02-21T06:59:29.319Z,24.93
2019-02-21T07:02:22.294Z,21.00
2019-02-21T07:05:14.672Z,20.57
2019-02-21T07:08:08.840Z,20.75
2019-02-21T07:11:06.216Z,20.43
2019-02-21T07:13:55.757Z,26.07
2019-02-21T07:16:47.821Z,25.45
2019-02-21T07:22:31.580Z,22.07
2019-02-21T07:25:32.352Z,23.75
2019-02-21T07:34:07.139Z,29.48
2019-02-21T07:36:59.415Z,24.55
2019-02-21T07:39:51.882Z,23.17
2019-02-21T07:42:44.612Z,23.80
2019-02-21T07:45:37.281Z,20.60
2019-02-21T07:48:29.700Z,22.30
2019-02-21T07:51:21.800Z,23.87
2019-02-21T07:54:15.375Z,24.52
2019-02-21T07:57:08.640Z,23.83
2019-02-21T08:00:02.281Z,26.00
2019-02-21T08:02:54.666Z,23.07
2019-02-21T08:05:47.599Z,20.60
2019-02-21T08:08:40.337Z,25.43
2019-02-21T08:11:32.680Z,25.87
2019-02-21T08:14:24.955Z,25.25
2019-02-21T08:17:17.644Z,21.93
2019-02-21T08:20:11.679Z,26.83
2019-02-21T08:23:04.259Z,27.80
2019-02-21T08:25:56.271Z,24.95
2019-02-21T08:28:48.679Z,24.77
2019-02-21T08:31:40.279Z,23.07
2019-02-21T08:34:39.796Z,22.33
2019-02-21T08:37:31.787Z,21.43
2019-02-21T08:40:25.111Z,24.52
2019-02-21T08:43:18.106Z,20.03
2019-02-21T08:46:10.754Z,21.83
2019-02-21T08:49:02.949Z,23.32
2019-02-21T08:57:38.293Z,25.13
2019-02-21T09:00:31.743Z,23.60
2019-02-21T09:03:24.287Z,22.40
2019-02-21T09:06:17.128Z,21.47
2019-02-21T09:09:09.693Z,26.10
2019-02-21T09:12:02.458Z,24.97
2019-02-21T09:14:55.281Z,24.67
2019-02-21T09:17:47.658Z,23.07
2019-02-21T09:20:41.356Z,19.83
2019-02-21T09:23:33.731Z,22.62
2019-02-21T09:26:25.943Z,20.23
2019-02-21T09:29:18.309Z,23.30
2019-02-21T09:32:11.319Z,22.22
2019-02-21T09:35:03.310Z,26.33
2019-02-21T09:37:55.341Z,26.57
2019-02-21T09:40:47.787Z,19.75
2019-02-21T09:43:40.276Z,22.23
2019-02-21T09:46:32.676Z,18.67
2019-02-21T09:49:24.691Z,21.87
2019-02-21T09:52:16.773Z,22.13
2019-02-21T09:58:02.319Z,23.10
2019-02-21T10:00:54.949Z,21.23
2019-02-21T10:03:47.646Z,24.63
2019-02-21T10:06:39.937Z,20.10
2019-02-21T10:09:33.297Z,23.18
2019-02-21T10:12:25.657Z,19.52
2019-02-21T10:15:18.645Z,24.40
2019-02-21T10:18:11.243Z,19.67
2019-02-21T10:21:03.276Z,21.48
2019-02-21T10:23:56.872Z,22.80
2019-02-21T10:26:49.688Z,23.05
2019-02-21T10:29:42.322Z,21.07
2019-02-21T10:32:35.113Z,20.92
2019-02-21T10:38:18.290Z,21.63
2019-02-21T10:41:10.657Z,18.37
2019-02-21T10:44:03.247Z,20.70
2019-02-21T10:46:55.789Z,22.33
2019-02-21T10:49:47.746Z,25.15
2019-02-21T10:55:33.270Z,24.20
2019-02-21T10:58:25.271Z,24.10
2019-02-21T11:01:17.277Z,22.90
2019-02-21T11:04:09.688Z,26.20
2019-02-21T11:07:02.273Z,19.65
2019-02-21T11:09:54.694Z,24.50
2019-02-21T11:12:47.280Z,24.23
2019-02-21T11:15:42.052Z,23.38
2019-02-21T11:18:33.936Z,23.83
2019-02-21T11:21:27.557Z,18.83
2019-02-21T11:24:20.258Z,19.98
2019-02-21T11:27:12.139Z,20.70
2019-02-21T11:35:46.424Z,18.52
2019-02-21T11:38:38.882Z,20.82
2019-02-21T11:41:31.582Z,19.27
2019-02-21T11:44:23.643Z,22.07
2019-02-21T11:47:15.738Z,19.03
2019-02-21T11:50:08.672Z,18.23
2019-02-21T11:53:00.956Z,17.77
2019-02-21T12:01:35.282Z,19.73
2019-02-21T12:04:27.730Z,21.50
2019-02-21T12:07:20.349Z,14.60
2019-02-21T12:10:13.313Z,19.23
2019-02-21T12:13:05.954Z,19.90
2019-02-21T12:15:59.130Z,19.00
2019-02-21T12:18:51.761Z,14.10
2019-02-21T12:21:44.279Z,17.20
2019-02-21T12:24:37.270Z,17.67
2019-02-21T12:27:29.281Z,17.55
2019-02-21T12:30:22.407Z,15.00
2019-02-21T12:33:14.857Z,11.33
2019-02-21T12:36:07.270Z,19.80
2019-02-21T12:38:59.126Z,19.07
2019-02-21T12:41:51.811Z,14.50
2019-02-21T12:44:44.930Z,19.23
2019-02-21T12:47:49.091Z,16.15
2019-02-21T12:50:43.682Z,17.73
2019-02-21T12:53:28.246Z,11.43
2019-02-21T12:56:20.678Z,14.98
2019-02-21T12:59:14.279Z,20.25
2019-02-21T13:02:06.728Z,15.98
2019-02-21T13:10:40.936Z,15.18
2019-02-21T13:13:33.282Z,18.90
2019-02-21T13:16:26.278Z,17.92
2019-02-21T13:19:18.676Z,20.17
2019-02-21T13:22:10.950Z,19.00
2019-02-21T13:25:03.338Z,18.85
2019-02-21T13:27:56.137Z,19.52
2019-02-21T13:30:48.581Z,20.90
2019-02-21T13:33:40.922Z,16.73
2019-02-21T13:36:33.998Z,18.35
2019-02-21T13:42:17.271Z,13.93
2019-02-21T13:45:10.683Z,15.32
2019-02-21T13:50:55.679Z,15.57
2019-02-21T13:53:47.991Z,17.00
2019-02-21T13:56:40.638Z,17.02
2019-02-21T14:00:39.695Z,20.30
2019-02-21T14:03:32.296Z,16.87
2019-02-21T14:06:25.120Z,17.90
2019-02-21T14:09:17.545Z,16.77
2019-02-21T14:12:10.286Z,18.15
2019-02-21T14:17:52.753Z,17.42
2019-02-21T14:20:45.763Z,17.98
2019-02-21T14:23:37.650Z,18.42
2019-02-21T14:26:29.889Z,17.77
2019-02-21T14:29:22.313Z,16.65
2019-02-21T14:32:15.285Z,17.32
2019-02-21T14:35:08.885Z,19.17
2019-02-21T14:40:52.276Z,14.58
2019-02-21T14:43:44.679Z,16.70
2019-02-21T14:46:36.579Z,14.23
2019-02-21T14:49:29.344Z,17.53
2019-02-21T14:52:21.943Z,16.93
2019-02-21T14:58:05.890Z,17.10
2019-02-21T15:00:58.608Z,13.80
2019-02-21T15:03:50.678Z,13.88
2019-02-21T15:06:43.587Z,13.32
2019-02-21T15:09:36.333Z,13.13
2019-02-21T15:12:29.126Z,13.95
2019-02-21T15:15:22.119Z,15.35
2019-02-21T15:18:15.289Z,12.45
2019-02-21T15:21:08.118Z,13.38
2019-02-21T15:25:59.981Z,14.18
2019-02-21T15:28:52.764Z,13.53
2019-02-21T15:31:45.949Z,15.37
2019-02-21T15:34:38.291Z,14.35
2019-02-21T15:37:30.945Z,15.00
2019-02-21T15:40:23.297Z,11.22
2019-02-21T15:45:09.643Z,11.97
2019-02-21T15:48:01.775Z,20.68
2019-02-21T15:50:53.951Z,12.65
2019-02-21T15:53:46.273Z,19.95
2019-02-21T15:56:39.135Z,15.13
2019-02-21T15:59:31.680Z,13.53
2019-02-21T16:02:23.936Z,14.17
2019-02-21T16:08:09.268Z,16.00
2019-02-21T16:11:04.232Z,19.17
2019-02-21T16:14:03.241Z,15.80
2019-02-21T16:17:26.778Z,11.68
2019-02-21T16:20:19.323Z,14.30
2019-02-21T16:23:13.290Z,12.65
2019-02-21T16:28:33.701Z,14.00
2019-02-21T16:31:27.309Z,31.43
2019-02-21T16:34:20.354Z,12.80
2019-02-21T16:37:12.882Z,15.32
2019-02-21T16:42:56.594Z,14.10
2019-02-21T16:45:53.662Z,17.20
2019-02-21T16:51:27.898Z,14.83
2019-02-21T16:54:20.152Z,17.90
2019-02-21T16:57:12.669Z,13.80
2019-02-21T17:00:05.329Z,15.88
2019-02-21T17:02:59.279Z,13.80
2019-02-21T17:05:51.333Z,12.82
2019-02-21T17:08:43.302Z,14.15
2019-02-21T17:11:36.354Z,16.75
2019-02-21T17:14:28.793Z,25.37
2019-02-21T17:17:21.315Z,14.65
2019-02-21T17:20:16.110Z,12.03
2019-02-21T17:25:59.277Z,21.82
2019-02-21T17:28:52.544Z,15.88
2019-02-21T17:32:06.340Z,13.88
2019-02-21T17:34:58.953Z,15.80
2019-02-21T17:37:50.926Z,12.58
2019-02-21T17:40:42.967Z,12.77
2019-02-21T17:43:35.301Z,12.00
2019-02-21T17:46:27.334Z,17.55
2019-02-21T17:52:10.674Z,13.28
2019-02-21T17:55:02.739Z,16.75
2019-02-21T17:57:55.887Z,12.33
2019-02-21T18:00:48.280Z,15.83
2019-02-21T18:03:40.283Z,16.50
2019-02-21T18:12:14.264Z,18.12
2019-02-21T18:15:06.946Z,19.05
2019-02-21T18:17:59.128Z,18.55
2019-02-21T18:20:51.349Z,14.43
2019-02-21T18:23:43.704Z,18.67
2019-02-21T18:26:36.265Z,18.85
2019-02-21T18:29:28.673Z,18.42
2019-02-21T18:32:22.336Z,20.15
2019-02-21T18:35:14.527Z,20.55
2019-02-21T18:38:06.781Z,18.20
2019-02-21T18:40:59.282Z,17.87
2019-02-21T18:43:51.665Z,27.90
2019-02-21T18:46:44.279Z,26.97
2019-02-21T18:49:36.721Z,23.57
2019-02-21T18:52:28.952Z,22.60
2019-02-21T18:55:21.681Z,27.82
2019-02-21T18:58:13.784Z,24.60
2019-02-21T19:01:07.312Z,22.67
2019-02-21T19:04:00.438Z,24.53
2019-02-21T19:06:52.779Z,26.80
2019-02-21T19:12:36.421Z,21.03
2019-02-21T19:15:29.944Z,22.17
2019-02-21T19:18:24.210Z,23.90
2019-02-21T19:21:15.888Z,22.75
2019-02-21T19:24:08.290Z,24.80
2019-02-21T19:27:00.685Z,21.55
2019-02-21T19:29:54.089Z,21.60
2019-02-21T19:32:47.720Z,26.77
2019-02-21T19:35:39.931Z,27.67
2019-02-21T19:38:33.278Z,27.50
2019-02-21T19:41:25.703Z,25.08
2019-02-21T19:44:18.277Z,21.07
2019-02-21T19:47:10.884Z,28.97
2019-02-21T19:50:04.280Z,24.10
2019-02-21T19:52:56.928Z,25.27
2019-02-21T19:58:36.867Z,29.57
2019-02-21T20:04:19.941Z,30.47
2019-02-21T20:07:12.267Z,28.23
2019-02-21T20:10:06.324Z,29.60
2019-02-21T20:13:01.280Z,32.15
2019-02-21T20:18:44.384Z,27.60
2019-02-21T20:21:36.754Z,28.77
2019-02-21T20:24:29.126Z,25.57
2019-02-21T20:30:15.787Z,31.48
2019-02-21T20:33:08.099Z,29.03
2019-02-21T20:36:00.462Z,28.07
2019-02-21T20:38:53.447Z,33.57
2019-02-21T20:41:46.777Z,33.98
2019-02-21T20:44:39.291Z,26.62
2019-02-21T20:47:31.897Z,29.42
2019-02-21T20:53:15.980Z,36.20
2019-02-21T20:57:16.952Z,34.60
2019-02-21T21:00:12.355Z,29.53
2019-02-21T21:03:05.310Z,29.10
2019-02-21T21:05:58.109Z,30.72
2019-02-21T21:08:50.350Z,29.30
2019-02-21T21:11:42.928Z,32.63
2019-02-21T21:14:35.099Z,30.93
2019-02-21T21:20:18.503Z,32.40
2019-02-21T21:23:10.939Z,36.15
2019-02-21T21:26:03.303Z,31.80
2019-02-21T21:28:55.822Z,35.48
2019-02-21T21:37:30.899Z,40.40
2019-02-21T21:43:15.555Z,39.83
2019-02-21T21:46:08.288Z,44.37
2019-02-21T22:03:39.969Z,40.67
2019-02-21T22:06:32.784Z,45.00
2019-02-21T22:09:25.534Z,42.03
2019-02-21T22:12:19.304Z,45.00
2019-02-21T22:15:12.395Z,41.40
2019-02-21T22:18:04.771Z,41.08
2019-02-21T22:20:56.756Z,43.00
2019-02-21T22:23:49.294Z,40.10
2019-02-21T22:26:41.779Z,42.75
2019-02-21T22:29:34.316Z,46.75
2019-02-21T22:32:26.751Z,39.40
2019-02-21T22:35:19.326Z,53.60
2019-02-21T22:38:12.081Z,43.42
2019-02-21T22:43:55.963Z,47.07
2019-02-21T22:46:48.525Z,45.58
2019-02-21T22:49:41.374Z,42.33
2019-02-21T22:52:33.956Z,41.17
2019-02-21T22:55:10.267Z,43.10
2019-02-21T22:57:44.963Z,55.40
2019-02-21T23:04:23.290Z,46.40
2019-02-21T23:07:47.705Z,43.83
2019-02-21T23:10:22.469Z,40.60
2019-02-21T23:12:57.295Z,40.70
2019-02-21T23:15:33.122Z,46.77
2019-02-21T23:18:07.964Z,49.23
2019-02-21T23:20:42.363Z,53.87
2019-02-21T23:23:17.288Z,44.50
2019-02-21T23:25:51.691Z,55.07
2019-02-21T23:28:26.291Z,52.83
2019-02-21T23:31:00.966Z,52.67
2019-02-21T23:36:10.653Z,54.80
2019-02-21T23:38:45.267Z,55.70
2019-02-21T23:41:19.719Z,50.43
2019-02-21T23:46:27.288Z,50.43
2019-02-21T23:49:01.979Z,61.13
2019-02-21T23:51:36.676Z,53.97
2019-02-21T23:54:11.283Z,58.47
2019-02-21T23:56:45.753Z,60.70
2019-02-21T23:59:21.416Z,60.70
